Time;durP1;ratioP1;P1;durP2;ratioP2;P2;SDS_P1;SDS_P2;PMS_P1;PMS_P2;Temp;Humidity;BMP_temperature;BMP_pressure;BME280_temperature;BME280_humidity;BME280_pressure;Samples;Min_cycle;Max_cycle;Signal;HPM_P1;HPM_P2
2021/03/17 00:01:08;;;;;;;2.00;1.90;;;4.60;83.30;;;;;;5079298;28;20225;-77
2021/03/17 00:03:35;;;;;;;2.65;2.55;;;4.60;83.90;;;;;;5069438;28;20248;-76
2021/03/17 00:06:03;;;;;;;2.80;2.63;;;4.60;83.90;;;;;;5086980;28;20225;-76
2021/03/17 00:08:30;;;;;;;2.28;2.17;;;4.60;83.80;;;;;;5088413;27;20275;-76
2021/03/17 00:10:57;;;;;;;2.40;2.30;;;4.60;83.70;;;;;;5083353;27;20225;-76
2021/03/17 00:13:24;;;;;;;2.45;2.35;;;4.70;83.90;;;;;;5082783;28;20218;-76
2021/03/17 00:15:52;;;;;;;2.35;2.25;;;4.60;84.30;;;;;;5086506;27;20217;-76
2021/03/17 00:18:18;;;;;;;2.17;2.08;;;4.60;84.30;;;;;;5086995;27;20229;-76
2021/03/17 00:20:45;;;;;;;2.05;1.95;;;4.60;84.30;;;;;;5091220;27;20236;-75
2021/03/17 00:23:12;;;;;;;2.17;2.08;;;4.50;84.20;;;;;;5084931;27;20266;-75
2021/03/17 00:25:40;;;;;;;1.90;1.80;;;4.60;84.50;;;;;;5084630;27;20223;-77
2021/03/17 00:28:08;;;;;;;2.20;2.10;;;4.50;84.70;;;;;;5091978;27;20216;-76
2021/03/17 00:30:36;;;;;;;2.05;1.98;;;4.50;84.90;;;;;;5084666;27;20224;-77
2021/03/17 00:33:06;;;;;;;2.08;1.98;;;4.50;85.20;;;;;;5076962;28;20222;-77
2021/03/17 00:35:33;;;;;;;2.30;2.20;;;4.40;85.10;;;;;;5062550;28;20284;-75
2021/03/17 00:37:59;;;;;;;2.50;2.40;;;4.40;85.40;;;;;;5067592;28;20244;-75
2021/03/17 00:40:27;;;;;;;2.17;2.08;;;4.40;85.70;;;;;;5076485;28;20247;-76
2021/03/17 00:42:54;;;;;;;2.13;2.05;;;4.30;86.00;;;;;;5085538;28;20729;-77
2021/03/17 00:45:21;;;;;;;2.17;2.08;;;4.30;85.90;;;;;;5087888;28;20221;-77
2021/03/17 00:47:48;;;;;;;1.80;1.70;;;4.30;86.00;;;;;;5084678;28;20228;-76
2021/03/17 00:50:16;;;;;;;2.20;2.10;;;4.30;86.30;;;;;;5083935;28;20277;-76
2021/03/17 00:52:43;;;;;;;2.20;2.10;;;4.30;86.50;;;;;;5082007;28;20214;-76
2021/03/17 00:55:11;;;;;;;2.90;2.80;;;4.30;85.90;;;;;;5084794;28;20225;-75
2021/03/17 00:57:39;;;;;;;2.10;2.00;;;4.30;86.30;;;;;;5079566;28;20220;-75
2021/03/17 01:00:08;;;;;;;2.03;1.92;;;4.30;86.50;;;;;;5068836;28;20232;-75
2021/03/17 01:02:35;;;;;;;2.75;2.55;;;4.30;86.30;;;;;;5072986;28;20274;-75
2021/03/17 01:05:02;;;;;;;2.10;2.00;;;4.30;86.50;;;;;;5084024;28;20229;-75
2021/03/17 01:07:28;;;;;;;2.03;1.92;;;4.30;86.20;;;;;;5090869;28;20536;-75
2021/03/17 01:09:55;;;;;;;2.30;2.20;;;4.40;86.20;;;;;;5084231;28;20225;-76
2021/03/17 01:12:21;;;;;;;2.60;2.50;;;4.30;85.90;;;;;;5089866;28;20229;-76
2021/03/17 01:14:49;;;;;;;2.22;2.13;;;4.30;86.00;;;;;;5093464;28;20229;-77
2021/03/17 01:20:38;;;;;;;2.15;2.05;;;4.20;86.10;;;;;;5091837;28;20244;-75
2021/03/17 01:23:05;;;;;;;1.73;1.63;;;4.20;86.60;;;;;;5092197;28;20224;-75
2021/03/17 01:25:34;;;;;;;2.08;1.98;;;4.10;86.60;;;;;;5089069;28;20229;-76
2021/03/17 01:28:03;;;;;;;1.70;1.60;;;4.10;86.90;;;;;;5096121;28;20221;-75
2021/03/17 01:30:33;;;;;;;2.15;2.05;;;4.00;87.60;;;;;;5089786;28;20220;-74
2021/03/17 01:33:00;;;;;;;2.42;2.33;;;4.00;87.80;;;;;;5083436;28;20218;-75
2021/03/17 01:35:27;;;;;;;2.40;2.30;;;4.00;88.00;;;;;;5080459;28;20644;-75
2021/03/17 01:37:54;;;;;;;2.25;2.15;;;4.00;88.20;;;;;;5080976;28;20270;-78
2021/03/17 01:40:23;;;;;;;2.45;2.35;;;3.90;87.90;;;;;;5079359;28;20289;-76
2021/03/17 01:42:49;;;;;;;2.08;1.98;;;3.90;88.00;;;;;;5075820;28;20227;-75
2021/03/17 01:45:17;;;;;;;1.50;1.50;;;3.90;87.70;;;;;;5080726;28;20595;-76
2021/03/17 01:47:47;;;;;;;2.55;2.45;;;3.90;87.50;;;;;;5089658;28;20225;-74
2021/03/17 01:50:16;;;;;;;2.28;2.17;;;3.90;87.80;;;;;;5089320;28;20220;-77
2021/03/17 01:52:42;;;;;;;2.50;2.40;;;3.90;88.00;;;;;;5094649;28;20226;-74
2021/03/17 01:55:10;;;;;;;2.40;2.30;;;3.90;88.40;;;;;;5089253;28;20229;-75
2021/03/17 01:57:37;;;;;;;2.67;2.58;;;3.90;87.90;;;;;;5091580;28;20661;-74
2021/03/17 02:00:06;;;;;;;2.70;2.50;;;3.80;88.40;;;;;;5086801;28;20230;-75
2021/03/17 02:02:34;;;;;;;2.20;2.10;;;3.80;88.60;;;;;;5092492;27;20225;-75
2021/03/17 02:05:02;;;;;;;2.25;2.15;;;3.80;89.00;;;;;;5091172;27;20648;-76
2021/03/17 02:07:29;;;;;;;2.38;2.28;;;3.80;89.20;;;;;;5095622;28;20218;-73
2021/03/17 02:09:55;;;;;;;2.90;2.70;;;3.80;89.40;;;;;;5091087;28;20738;-75
2021/03/17 02:12:38;;;;;;;2.33;2.22;;;3.70;89.40;;;;;;5091623;28;20713;-77
2021/03/17 02:15:12;;;;;;;2.10;2.00;;;3.70;89.70;;;;;;5087977;28;20303;-74
2021/03/17 02:17:40;;;;;;;2.15;1.95;;;3.80;90.00;;;;;;5088210;28;20659;-78
2021/03/17 02:20:40;;;;;;;2.28;2.17;;;3.70;90.00;;;;;;5085858;27;20228;-75
2021/03/17 02:23:16;;;;;;;2.20;2.10;;;3.70;90.00;;;;;;5086223;28;20209;-77
2021/03/17 02:26:30;;;;;;;2.45;2.35;;;3.70;90.00;;;;;;5072752;28;20223;-74
2021/03/17 02:29:11;;;;;;;1.55;1.55;;;3.70;89.90;;;;;;5030782;28;20222;-77
2021/03/17 02:32:07;;;;;;;2.13;2.03;;;3.70;89.80;;;;;;5077819;28;20646;-77
2021/03/17 02:34:38;;;;;;;2.33;2.22;;;3.80;90.00;;;;;;5075959;28;20210;-77
2021/03/17 02:37:07;;;;;;;2.40;2.30;;;3.70;89.80;;;;;;5079641;28;20233;-74
2021/03/17 02:39:37;;;;;;;2.70;2.60;;;3.70;90.00;;;;;;5082198;28;20218;-75
2021/03/17 02:42:09;;;;;;;2.70;2.60;;;3.60;90.20;;;;;;5095337;27;20248;-77
2021/03/17 02:44:44;;;;;;;2.53;2.42;;;3.60;90.10;;;;;;5081208;28;20297;-77
2021/03/17 02:47:12;;;;;;;2.63;2.53;;;3.60;90.20;;;;;;5078247;28;22043;-76
2021/03/17 02:49:42;;;;;;;1.85;1.85;;;3.60;90.40;;;;;;5082774;28;20210;-76
2021/03/17 02:52:10;;;;;;;2.38;2.28;;;3.50;90.40;;;;;;5081249;28;20349;-77
2021/03/17 02:54:40;;;;;;;2.72;2.63;;;3.40;90.30;;;;;;5081993;28;20726;-73
2021/03/17 02:57:12;;;;;;;2.40;2.30;;;3.40;90.30;;;;;;5075978;28;20221;-75
2021/03/17 02:59:41;;;;;;;2.67;2.58;;;3.30;90.30;;;;;;5081483;28;20222;-75
2021/03/17 03:02:08;;;;;;;2.38;2.28;;;3.40;90.50;;;;;;5089169;28;20299;-74
2021/03/17 03:04:36;;;;;;;2.60;2.50;;;3.30;90.40;;;;;;5086231;28;20227;-75
2021/03/17 03:07:04;;;;;;;2.47;2.38;;;3.30;90.50;;;;;;5080774;28;20225;-74
2021/03/17 03:09:31;;;;;;;2.30;2.20;;;3.30;90.50;;;;;;5082568;28;20279;-75
2021/03/17 03:11:59;;;;;;;2.75;2.65;;;3.20;90.60;;;;;;5084103;28;20230;-75
2021/03/17 03:14:28;;;;;;;2.70;2.60;;;3.30;90.90;;;;;;5087979;28;20952;-75
2021/03/17 03:16:57;;;;;;;2.38;2.28;;;3.30;90.70;;;;;;5075639;28;20283;-74
2021/03/17 03:19:29;;;;;;;2.20;2.10;;;3.30;90.70;;;;;;5086793;28;20218;-76
2021/03/17 03:21:57;;;;;;;2.55;2.45;;;3.20;90.80;;;;;;5086521;28;20231;-74
2021/03/17 03:24:25;;;;;;;2.75;2.58;;;3.10;90.80;;;;;;5091708;27;20240;-76
2021/03/17 03:26:54;;;;;;;2.40;2.30;;;3.10;90.90;;;;;;5086416;28;20221;-75
2021/03/17 03:29:21;;;;;;;2.72;2.63;;;3.10;90.90;;;;;;5083857;28;20213;-77
2021/03/17 03:31:48;;;;;;;2.40;2.30;;;3.10;91.00;;;;;;5068995;22;20230;-67
2021/03/17 03:34:16;;;;;;;2.53;2.42;;;3.10;91.00;;;;;;5041826;28;20233;-68
2021/03/17 03:36:44;;;;;;;2.55;2.45;;;3.10;91.10;;;;;;5044138;28;20227;-67
2021/03/17 03:39:10;;;;;;;2.28;2.17;;;3.10;91.60;;;;;;5044672;28;20219;-67
2021/03/17 03:41:38;;;;;;;2.40;2.30;;;3.10;91.20;;;;;;5066264;28;20597;-67
2021/03/17 03:44:06;;;;;;;2.45;2.35;;;3.10;91.30;;;;;;5074095;28;20248;-68
2021/03/17 03:46:33;;;;;;;2.40;2.30;;;3.10;90.90;;;;;;5077936;28;20222;-67
2021/03/17 03:49:00;;;;;;;2.55;2.45;;;3.00;90.80;;;;;;5075745;28;20225;-67
2021/03/17 03:51:27;;;;;;;2.50;2.40;;;3.00;90.90;;;;;;5071311;28;20232;-67
2021/03/17 03:54:08;;;;;;;2.22;2.13;;;3.00;91.10;;;;;;5077278;28;20411;-67
2021/03/17 03:56:42;;;;;;;2.72;2.63;;;3.00;91.20;;;;;;5074430;28;20237;-68
2021/03/17 03:59:12;;;;;;;2.20;2.10;;;2.90;91.40;;;;;;5078017;28;20777;-67
2021/03/17 04:01:44;;;;;;;2.05;1.95;;;2.90;91.50;;;;;;5074848;28;20229;-67
2021/03/17 04:04:12;;;;;;;2.75;2.65;;;2.90;91.50;;;;;;5076241;28;20221;-67
2021/03/17 04:06:42;;;;;;;2.45;2.35;;;2.90;91.70;;;;;;5086820;28;20271;-68
2021/03/17 04:09:09;;;;;;;2.92;2.80;;;2.90;91.60;;;;;;5086422;28;20222;-68
2021/03/17 04:11:38;;;;;;;2.65;2.45;;;2.90;91.30;;;;;;5078192;28;20668;-67
2021/03/17 04:14:09;;;;;;;2.25;2.15;;;2.90;91.00;;;;;;5073924;28;20230;-67
2021/03/17 04:16:37;;;;;;;2.90;2.78;;;2.80;91.10;;;;;;5075906;28;20217;-67
2021/03/17 04:19:04;;;;;;;2.65;2.53;;;2.80;91.10;;;;;;5073853;28;20722;-67
2021/03/17 04:21:34;;;;;;;2.60;2.50;;;2.80;91.20;;;;;;5073082;28;20736;-68
2021/03/17 04:24:03;;;;;;;2.40;2.30;;;2.80;91.10;;;;;;5073890;28;20221;-68
2021/03/17 04:26:32;;;;;;;2.30;2.20;;;2.80;91.30;;;;;;5078332;28;20213;-68
2021/03/17 04:28:59;;;;;;;2.75;2.65;;;2.80;91.30;;;;;;5079635;28;20729;-67
2021/03/17 04:31:28;;;;;;;2.65;2.55;;;2.80;91.30;;;;;;5078588;28;20540;-67
2021/03/17 04:33:55;;;;;;;2.40;2.30;;;2.70;91.40;;;;;;5075842;28;20221;-67
2021/03/17 04:36:23;;;;;;;2.65;2.55;;;2.70;91.60;;;;;;5075376;28;20225;-67
2021/03/17 04:38:51;;;;;;;2.72;2.63;;;2.70;91.50;;;;;;5076852;28;20228;-67
2021/03/17 04:41:18;;;;;;;2.97;2.83;;;2.80;91.40;;;;;;5071318;28;20295;-67
2021/03/17 04:43:45;;;;;;;2.58;2.47;;;2.70;91.40;;;;;;5071444;28;20613;-67
2021/03/17 04:46:14;;;;;;;2.40;2.30;;;2.70;91.50;;;;;;5073304;28;20210;-67
2021/03/17 04:48:44;;;;;;;2.85;2.75;;;2.70;91.60;;;;;;5078687;28;20225;-67
2021/03/17 04:51:11;;;;;;;2.40;2.30;;;2.60;91.60;;;;;;5090078;28;20256;-68
2021/03/17 04:53:38;;;;;;;2.72;2.63;;;2.60;91.70;;;;;;5082096;28;20643;-67
2021/03/17 04:56:06;;;;;;;2.70;2.60;;;2.60;91.80;;;;;;5075551;28;20480;-67
2021/03/17 04:58:36;;;;;;;3.13;3.03;;;2.50;91.80;;;;;;5076432;28;20258;-67
2021/03/17 05:01:06;;;;;;;2.83;2.72;;;2.50;91.60;;;;;;5079149;28;20257;-67
2021/03/17 05:03:33;;;;;;;2.55;2.45;;;2.50;91.80;;;;;;5082150;28;20318;-68
2021/03/17 05:06:05;;;;;;;2.90;2.80;;;2.60;91.80;;;;;;5078902;28;20225;-68
2021/03/17 05:08:32;;;;;;;2.72;2.63;;;2.60;91.80;;;;;;5080388;28;20220;-67
2021/03/17 05:10:59;;;;;;;2.67;2.58;;;2.60;91.80;;;;;;5073742;28;20715;-67
2021/03/17 05:13:26;;;;;;;3.00;2.90;;;2.60;91.90;;;;;;5081301;28;20274;-67
2021/03/17 05:15:54;;;;;;;2.58;2.47;;;2.60;92.00;;;;;;5079009;28;20229;-67
2021/03/17 05:18:21;;;;;;;3.03;2.90;;;2.60;92.00;;;;;;5078165;28;20614;-67
2021/03/17 05:20:51;;;;;;;2.58;2.47;;;2.60;91.90;;;;;;5077707;28;20237;-67
2021/03/17 05:23:19;;;;;;;2.85;2.75;;;2.60;91.90;;;;;;5076399;28;20240;-67
2021/03/17 05:25:46;;;;;;;2.70;2.60;;;2.60;92.00;;;;;;5073307;28;20580;-67
2021/03/17 05:28:15;;;;;;;2.72;2.63;;;2.60;91.80;;;;;;5075341;28;20221;-67
2021/03/17 05:30:44;;;;;;;2.78;2.67;;;2.60;92.00;;;;;;5079242;28;20225;-68
2021/03/17 05:33:11;;;;;;;3.00;2.90;;;2.60;91.90;;;;;;5077871;28;20302;-67
2021/03/17 05:35:39;;;;;;;3.15;3.05;;;2.60;91.90;;;;;;5095220;28;20217;-68
2021/03/17 05:38:06;;;;;;;2.92;2.60;;;2.60;92.00;;;;;;5081626;28;20283;-67
2021/03/17 05:40:35;;;;;;;2.80;2.60;;;2.60;92.00;;;;;;5078469;28;20296;-67
2021/03/17 05:43:05;;;;;;;2.88;2.75;;;2.60;92.10;;;;;;5077023;28;20222;-67
2021/03/17 05:45:34;;;;;;;2.78;2.67;;;2.60;92.40;;;;;;5076305;28;20243;-67
2021/03/17 05:48:02;;;;;;;2.42;2.33;;;2.50;92.40;;;;;;5074737;28;20218;-67
2021/03/17 05:50:29;;;;;;;2.70;2.60;;;2.50;92.50;;;;;;5072779;28;20233;-67
2021/03/17 05:52:57;;;;;;;2.95;2.85;;;2.50;92.70;;;;;;5080184;28;20218;-67
2021/03/17 05:55:23;;;;;;;2.60;2.50;;;2.50;92.50;;;;;;5075471;28;20226;-67
2021/03/17 05:57:51;;;;;;;2.53;2.42;;;2.50;92.40;;;;;;5079162;28;20214;-67
2021/03/17 06:00:20;;;;;;;3.17;2.97;;;2.50;92.40;;;;;;5078735;28;20237;-67
2021/03/17 06:02:48;;;;;;;4.05;3.40;;;2.50;92.30;;;;;;5076721;28;20698;-68
2021/03/17 06:05:17;;;;;;;2.92;2.83;;;2.50;92.60;;;;;;5084440;28;20293;-68
2021/03/17 06:07:54;;;;;;;3.78;3.58;;;2.50;92.60;;;;;;5083127;28;20266;-67
2021/03/17 06:10:22;;;;;;;3.42;3.22;;;2.50;92.60;;;;;;5083227;28;20237;-68
2021/03/17 06:12:54;;;;;;;3.33;3.15;;;2.50;92.50;;;;;;5077509;28;20235;-67
2021/03/17 06:15:23;;;;;;;2.92;2.83;;;2.50;92.50;;;;;;5081373;28;20581;-67
2021/03/17 06:17:54;;;;;;;2.88;2.78;;;2.60;92.40;;;;;;5082214;28;20217;-68
2021/03/17 06:20:21;;;;;;;2.78;2.67;;;2.60;92.30;;;;;;5095679;28;20221;-67
2021/03/17 06:22:48;;;;;;;3.20;3.10;;;2.80;92.20;;;;;;5077067;28;20230;-67
2021/03/17 06:25:16;;;;;;;3.15;3.05;;;3.40;91.80;;;;;;5077355;28;20694;-67
2021/03/17 06:27:45;;;;;;;3.05;2.90;;;4.20;91.20;;;;;;5083511;28;20246;-67
2021/03/17 06:30:14;;;;;;;3.65;3.40;;;5.00;90.70;;;;;;5078213;28;20213;-67
2021/03/17 06:32:40;;;;;;;2.80;2.70;;;5.70;90.20;;;;;;5079536;28;20606;-67
2021/03/17 06:35:18;;;;;;;3.30;3.10;;;6.20;88.80;;;;;;5076957;28;20221;-68
2021/03/17 06:37:45;;;;;;;3.17;2.97;;;6.70;87.60;;;;;;5081920;28;20230;-68
2021/03/17 06:40:26;;;;;;;3.20;3.00;;;7.20;87.10;;;;;;5077125;28;20236;-68
2021/03/17 06:42:55;;;;;;;2.50;2.38;;;7.60;85.90;;;;;;5085340;28;20225;-67
2021/03/17 06:45:34;;;;;;;2.78;2.67;;;7.90;86.10;;;;;;5080004;28;20213;-67
2021/03/17 06:48:19;;;;;;;2.80;2.70;;;8.10;85.10;;;;;;5074831;28;20278;-68
2021/03/17 06:50:46;;;;;;;2.78;2.58;;;8.30;83.80;;;;;;5076969;28;20225;-68
2021/03/17 06:53:13;;;;;;;2.65;2.55;;;8.50;83.50;;;;;;5079987;28;20479;-68
2021/03/17 06:55:39;;;;;;;2.40;2.20;;;8.70;84.00;;;;;;5080532;28;20700;-67
2021/03/17 06:58:06;;;;;;;2.70;2.42;;;8.70;83.50;;;;;;5081007;28;20230;-68
2021/03/17 07:00:35;;;;;;;2.45;2.35;;;8.90;83.70;;;;;;5079272;28;20225;-67
2021/03/17 07:03:04;;;;;;;2.65;2.55;;;9.30;83.40;;;;;;5082397;28;20221;-67
2021/03/17 07:05:38;;;;;;;2.67;2.47;;;9.60;82.60;;;;;;5079173;28;20412;-68
2021/03/17 07:08:07;;;;;;;2.88;2.67;;;9.60;82.70;;;;;;5081340;28;20221;-68
2021/03/17 07:10:37;;;;;;;2.53;2.33;;;9.90;83.10;;;;;;5076314;28;20233;-69
2021/03/17 07:13:05;;;;;;;2.78;2.40;;;10.20;83.00;;;;;;5082508;28;20719;-69
2021/03/17 07:15:34;;;;;;;2.67;2.30;;;10.30;81.70;;;;;;5080514;28;20270;-70
2021/03/17 07:18:18;;;;;;;2.22;2.10;;;10.40;81.60;;;;;;5078413;28;20298;-68
2021/03/17 07:20:48;;;;;;;2.17;2.03;;;10.30;81.60;;;;;;5081499;28;20242;-68
2021/03/17 07:23:26;;;;;;;2.38;2.17;;;10.40;82.10;;;;;;5078382;28;20289;-68
2021/03/17 07:26:17;;;;;;;2.08;1.88;;;10.40;83.90;;;;;;5076848;28;20255;-68
2021/03/17 07:29:12;;;;;;;2.13;2.00;;;10.40;83.30;;;;;;5078526;28;20220;-68
2021/03/17 07:31:42;;;;;;;2.03;1.88;;;10.70;83.60;;;;;;5081416;28;20214;-70
2021/03/17 07:34:11;;;;;;;2.08;1.98;;;11.10;82.90;;;;;;5076365;28;20694;-68
2021/03/17 07:36:41;;;;;;;2.05;1.95;;;11.40;82.30;;;;;;5078254;28;20547;-68
2021/03/17 07:39:10;;;;;;;1.95;1.85;;;11.70;81.40;;;;;;5083233;28;20221;-69
2021/03/17 07:41:38;;;;;;;4.78;2.35;;;11.80;82.40;;;;;;5080672;28;20287;-69
2021/03/17 07:44:08;;;;;;;2.15;2.05;;;12.00;81.60;;;;;;5085640;28;20270;-69
2021/03/17 07:46:36;;;;;;;2.40;2.20;;;12.20;81.30;;;;;;5088831;28;20457;-69
2021/03/17 07:49:06;;;;;;;2.13;2.03;;;12.20;81.10;;;;;;5081443;28;20592;-70
2021/03/17 07:51:35;;;;;;;1.80;1.70;;;12.50;80.10;;;;;;5074085;28;20305;-71
2021/03/17 07:54:03;;;;;;;2.03;1.83;;;12.30;77.20;;;;;;5074670;28;20800;-69
2021/03/17 07:56:31;;;;;;;1.90;1.80;;;11.90;77.30;;;;;;5072228;28;20374;-69
2021/03/17 07:59:00;;;;;;;1.95;1.85;;;11.60;80.30;;;;;;5073346;28;20221;-71
2021/03/17 08:01:27;;;;;;;1.60;1.50;;;11.40;79.00;;;;;;5073477;28;20228;-70
2021/03/17 08:03:57;;;;;;;2.30;2.20;;;11.40;80.30;;;;;;5075632;28;20318;-69
2021/03/17 08:06:25;;;;;;;2.35;1.63;;;11.30;79.30;;;;;;5071876;28;20228;-70
2021/03/17 08:08:57;;;;;;;2.42;2.22;;;11.30;80.10;;;;;;5076369;28;20214;-70
2021/03/17 08:11:25;;;;;;;2.60;2.40;;;11.40;81.70;;;;;;5075232;28;20440;-70
2021/03/17 08:13:53;;;;;;;1.90;1.80;;;11.60;81.50;;;;;;5074710;28;20213;-70
2021/03/17 08:16:22;;;;;;;2.15;2.05;;;11.80;80.30;;;;;;5073188;28;20217;-70
2021/03/17 08:18:50;;;;;;;2.72;2.13;;;12.10;80.80;;;;;;5070060;28;20743;-72
2021/03/17 08:21:49;;;;;;;1.95;1.85;;;12.40;80.20;;;;;;5074142;28;20217;-70
2021/03/17 08:24:46;;;;;;;1.92;1.83;;;12.60;78.90;;;;;;5073927;28;20603;-70
2021/03/17 08:27:26;;;;;;;1.80;1.70;;;12.60;79.50;;;;;;5015533;28;20221;-70
2021/03/17 08:30:12;;;;;;;1.77;1.67;;;12.80;79.20;;;;;;5078607;28;20405;-69
2021/03/17 08:32:57;;;;;;;1.70;1.60;;;12.80;77.70;;;;;;5074174;28;20217;-69
2021/03/17 08:35:24;;;;;;;1.80;1.70;;;12.80;77.60;;;;;;5073484;28;20645;-69
2021/03/17 08:37:54;;;;;;;1.80;1.70;;;12.90;76.20;;;;;;5075273;28;20240;-69
2021/03/17 08:40:45;;;;;;;1.38;1.38;;;12.90;76.20;;;;;;5072975;28;20625;-70
2021/03/17 08:43:39;;;;;;;1.88;1.70;;;12.70;73.50;;;;;;5074857;28;20390;-69
2021/03/17 08:46:06;;;;;;;1.50;1.40;;;12.40;75.00;;;;;;5075921;28;20252;-69
2021/03/17 08:48:58;;;;;;;1.88;1.60;;;12.50;75.50;;;;;;5073082;28;20225;-69
2021/03/17 08:52:07;;;;;;;1.50;1.40;;;12.60;73.60;;;;;;5074437;28;20217;-69
2021/03/17 08:55:03;;;;;;;1.35;1.25;;;12.60;72.60;;;;;;5073922;28;20252;-68
2021/03/17 08:58:00;;;;;;;1.38;1.30;;;12.50;73.80;;;;;;5073045;28;21291;-69
2021/03/17 09:00:58;;;;;;;1.45;1.45;;;12.60;73.70;;;;;;5076000;28;20304;-69
2021/03/17 09:03:50;;;;;;;1.80;1.65;;;12.80;72.50;;;;;;5071098;28;20217;-71
2021/03/17 09:06:23;;;;;;;1.50;1.50;;;12.60;72.50;;;;;;5057686;28;20774;-69
2021/03/17 09:09:15;;;;;;;3.30;2.03;;;12.80;76.60;;;;;;5070200;28;20217;-69
2021/03/17 09:12:01;;;;;;;1.92;1.80;;;13.30;74.10;;;;;;5089776;28;20217;-70
2021/03/17 09:14:33;;;;;;;1.40;1.40;;;13.10;73.30;;;;;;5075651;28;20627;-68
2021/03/17 09:17:31;;;;;;;2.28;1.52;;;12.90;73.40;;;;;;5072110;28;20234;-68
2021/03/17 09:20:14;;;;;;;1.70;1.60;;;12.80;73.70;;;;;;5069726;28;20225;-70
2021/03/17 09:22:45;;;;;;;1.73;1.63;;;13.00;73.60;;;;;;5070474;28;22290;-69
2021/03/17 09:25:20;;;;;;;1.73;1.70;;;13.10;71.80;;;;;;5070767;28;20213;-71
2021/03/17 09:27:52;;;;;;;2.03;1.70;;;13.10;72.70;;;;;;5069489;28;20677;-68
2021/03/17 09:30:20;;;;;;;1.50;1.40;;;13.10;72.40;;;;;;5071529;28;20241;-70
2021/03/17 09:32:47;;;;;;;1.38;1.27;;;13.20;72.70;;;;;;5071245;28;20217;-69
2021/03/17 09:35:15;;;;;;;3.65;1.70;;;13.30;72.80;;;;;;5073138;28;20225;-69
2021/03/17 09:37:43;;;;;;;1.60;1.50;;;13.60;72.80;;;;;;5071991;28;20232;-68
2021/03/17 09:40:15;;;;;;;1.92;1.83;;;13.80;72.50;;;;;;5077777;28;20716;-69
2021/03/17 09:42:42;;;;;;;1.55;1.45;;;14.40;73.40;;;;;;5072856;28;20244;-69
2021/03/17 09:45:11;;;;;;;1.80;1.70;;;14.50;71.80;;;;;;5077650;28;20221;-69
2021/03/17 09:47:38;;;;;;;1.67;1.58;;;14.70;71.40;;;;;;5073583;28;20719;-71
2021/03/17 09:50:15;;;;;;;1.30;1.20;;;14.60;74.30;;;;;;5075687;28;20226;-72
2021/03/17 09:52:45;;;;;;;1.70;1.60;;;14.50;71.20;;;;;;5074130;28;20235;-72
2021/03/17 09:55:29;;;;;;;1.83;1.73;;;14.50;70.70;;;;;;5080305;28;20715;-69
2021/03/17 09:58:00;;;;;;;2.60;1.30;;;14.20;70.20;;;;;;5078360;28;20695;-69
2021/03/17 10:00:28;;;;;;;1.40;1.40;;;14.10;72.50;;;;;;5077403;28;20225;-70
2021/03/17 10:02:58;;;;;;;1.60;1.45;;;14.20;71.40;;;;;;5078655;28;20231;-68
2021/03/17 10:05:25;;;;;;;1.60;1.42;;;14.30;71.50;;;;;;5078737;28;20225;-68
2021/03/17 10:07:52;;;;;;;1.35;1.25;;;14.10;70.80;;;;;;5073678;28;20221;-74
2021/03/17 10:10:20;;;;;;;1.42;1.20;;;14.30;73.20;;;;;;5074469;28;20229;-69
2021/03/17 10:12:47;;;;;;;2.20;1.58;;;14.60;72.60;;;;;;5073908;28;20915;-69
2021/03/17 10:15:16;;;;;;;1.63;1.52;;;14.80;70.30;;;;;;5074773;28;20221;-68
2021/03/17 10:17:44;;;;;;;1.30;1.30;;;14.70;69.70;;;;;;5075501;28;20738;-69
2021/03/17 10:20:14;;;;;;;1.60;1.50;;;15.00;70.70;;;;;;5068770;28;20232;-69
2021/03/17 10:22:41;;;;;;;1.50;1.40;;;14.80;69.00;;;;;;5090004;28;20753;-68
2021/03/17 10:25:10;;;;;;;1.40;1.30;;;14.70;69.70;;;;;;5075089;28;20240;-69
2021/03/17 10:27:40;;;;;;;1.60;1.50;;;14.50;70.20;;;;;;5079133;28;20209;-69
2021/03/17 10:30:09;;;;;;;1.33;1.23;;;14.50;69.30;;;;;;5077474;28;20829;-70
2021/03/17 10:32:38;;;;;;;1.25;1.20;;;14.40;67.80;;;;;;5082125;28;20218;-69
2021/03/17 10:35:09;;;;;;;1.38;1.27;;;13.90;69.50;;;;;;5085108;22;20229;-88
2021/03/17 10:37:36;;;;;;;1.40;1.30;;;13.70;70.00;;;;;;5093673;28;20229;-90
2021/03/17 10:40:13;;;;;;;1.60;1.45;;;13.40;69.20;;;;;;5082564;28;20279;-91
2021/03/17 10:42:44;;;;;;;1.27;1.27;;;13.10;71.40;;;;;;5074803;28;20239;-91
2021/03/17 10:45:13;;;;;;;1.40;1.40;;;13.60;70.90;;;;;;5077716;28;20276;-90
2021/03/17 10:47:42;;;;;;;1.35;1.25;;;13.70;70.50;;;;;;5093008;28;20217;-89
2021/03/17 10:50:12;;;;;;;1.48;1.38;;;13.80;70.50;;;;;;5068087;28;20226;-90
2021/03/17 10:52:40;;;;;;;1.65;1.50;;;13.90;68.50;;;;;;5087568;28;20230;-89
2021/03/17 10:55:23;;;;;;;1.27;1.27;;;14.20;67.90;;;;;;5076955;28;20230;-89
2021/03/17 10:57:50;;;;;;;1.40;1.40;;;14.60;68.30;;;;;;5061519;28;20230;-89
2021/03/17 11:00:24;;;;;;;1.63;1.52;;;15.00;69.70;;;;;;5089227;28;20225;-88
2021/03/17 11:02:51;;;;;;;1.60;1.50;;;15.60;69.10;;;;;;5092701;28;20214;-85
2021/03/17 11:05:29;;;;;;;1.35;1.35;;;15.10;68.00;;;;;;5088328;28;20221;-88
2021/03/17 11:08:05;;;;;;;1.98;1.40;;;14.40;67.20;;;;;;5087808;28;20236;-87
2021/03/17 11:10:42;;;;;;;1.50;1.40;;;13.70;68.40;;;;;;5080473;28;20571;-87
2021/03/17 11:13:32;;;;;;;1.35;1.30;;;13.20;70.20;;;;;;5080626;28;20226;-86
2021/03/17 11:16:01;;;;;;;1.30;1.30;;;12.90;72.90;;;;;;5074757;28;20244;-87
2021/03/17 11:18:30;;;;;;;1.40;1.40;;;13.00;76.60;;;;;;5077465;28;20237;-87
2021/03/17 11:20:59;;;;;;;1.30;1.30;;;13.10;74.60;;;;;;5060418;28;20230;-88
2021/03/17 11:23:35;;;;;;;1.42;1.30;;;13.10;73.30;;;;;;5077217;28;20268;-86
2021/03/17 11:26:48;;;;;;;1.55;1.20;;;13.40;72.70;;;;;;5058403;28;20201;-87
2021/03/17 11:29:30;;;;;;;1.25;1.20;;;13.90;69.20;;;;;;4996579;28;20287;-88
2021/03/17 11:34:50;;;;;;;1.33;1.30;;;15.00;67.30;;;;;;5069565;22;20232;-76
2021/03/17 11:37:17;;;;;;;1.40;1.30;;;15.40;65.80;;;;;;5060283;28;20235;-75
2021/03/17 11:39:44;;;;;;;1.60;1.50;;;15.40;64.20;;;;;;5060773;28;20295;-75
2021/03/17 11:42:10;;;;;;;1.17;1.17;;;14.70;64.50;;;;;;5061732;28;20218;-74
2021/03/17 11:44:37;;;;;;;1.20;1.20;;;14.10;64.80;;;;;;5061420;28;20723;-74
2021/03/17 11:47:04;;;;;;;1.20;1.20;;;13.70;65.30;;;;;;5062334;28;20312;-74
2021/03/17 11:49:30;;;;;;;1.40;1.30;;;13.30;65.20;;;;;;5064558;28;20700;-74
2021/03/17 11:51:57;;;;;;;1.42;1.38;;;13.10;67.40;;;;;;5067414;28;20230;-74
2021/03/17 11:54:25;;;;;;;1.70;1.60;;;12.90;67.00;;;;;;5065305;28;20230;-74
2021/03/17 11:56:52;;;;;;;1.33;1.25;;;12.80;67.70;;;;;;5059798;28;20214;-73
2021/03/17 11:59:19;;;;;;;1.65;1.17;;;12.70;67.30;;;;;;5059605;28;20252;-73
2021/03/17 12:01:45;;;;;;;1.25;1.25;;;12.70;67.40;;;;;;5061615;28;20218;-74
2021/03/17 12:04:12;;;;;;;1.58;1.58;;;12.90;68.50;;;;;;5059716;28;20704;-74
2021/03/17 12:06:39;;;;;;;1.48;1.38;;;12.90;67.50;;;;;;5061497;28;20573;-71
2021/03/17 12:09:06;;;;;;;2.35;1.20;;;12.80;66.80;;;;;;5061316;28;20222;-75
2021/03/17 12:11:35;;;;;;;1.23;1.17;;;12.80;67.40;;;;;;5057081;28;20224;-75
2021/03/17 12:14:02;;;;;;;1.58;1.48;;;12.90;67.20;;;;;;5061353;28;20236;-74
2021/03/17 12:16:29;;;;;;;1.50;1.20;;;13.20;67.20;;;;;;5057279;28;20234;-74
2021/03/17 12:18:56;;;;;;;1.45;1.35;;;13.70;65.40;;;;;;5056571;28;20627;-75
2021/03/17 12:21:22;;;;;;;2.38;2.00;;;14.40;65.70;;;;;;5059918;28;20214;-75
2021/03/17 12:23:51;;;;;;;2.05;1.45;;;14.70;64.10;;;;;;5061411;28;20219;-74
2021/03/17 12:26:17;;;;;;;1.20;1.20;;;14.60;65.80;;;;;;5061916;28;20224;-74
2021/03/17 12:28:45;;;;;;;1.15;1.15;;;14.20;62.00;;;;;;5058699;28;21045;-74
2021/03/17 12:31:12;;;;;;;1.70;1.60;;;13.50;62.30;;;;;;5059846;28;20474;-74
2021/03/17 12:33:39;;;;;;;3.13;1.20;;;13.20;63.80;;;;;;5057988;28;20220;-75
2021/03/17 12:36:06;;;;;;;9.38;1.40;;;12.70;62.70;;;;;;5060444;28;20227;-74
2021/03/17 12:38:33;;;;;;;1.50;1.40;;;12.50;62.50;;;;;;5060000;28;20279;-72
2021/03/17 12:41:00;;;;;;;1.58;1.27;;;12.30;64.30;;;;;;5071925;28;20238;-75
2021/03/17 12:43:28;;;;;;;1.52;1.42;;;12.30;66.80;;;;;;5072368;28;20224;-75
2021/03/17 12:45:56;;;;;;;1.27;1.27;;;12.30;66.60;;;;;;5070792;28;20257;-75
2021/03/17 12:48:23;;;;;;;1.60;1.50;;;12.20;65.90;;;;;;5072089;28;20232;-75
2021/03/17 12:50:50;;;;;;;1.50;1.50;;;12.20;67.00;;;;;;5061293;28;20218;-75
2021/03/17 12:53:16;;;;;;;2.00;1.23;;;12.20;66.90;;;;;;5060764;28;20233;-76
2021/03/17 12:55:43;;;;;;;1.45;1.42;;;12.20;67.50;;;;;;5058399;28;20247;-75
2021/03/17 12:58:10;;;;;;;1.30;1.20;;;12.40;66.30;;;;;;5057370;28;20771;-75
2021/03/17 13:00:36;;;;;;;1.33;1.25;;;12.70;65.40;;;;;;5057661;28;20221;-74
2021/03/17 13:03:04;;;;;;;1.80;1.70;;;12.60;64.80;;;;;;5057487;28;20222;-75
2021/03/17 13:05:31;;;;;;;1.77;1.67;;;12.70;66.40;;;;;;5062050;28;20222;-75
2021/03/17 13:07:58;;;;;;;1.58;1.48;;;13.20;66.60;;;;;;5061045;28;20222;-76
2021/03/17 13:10:25;;;;;;;1.00;1.00;;;13.60;63.90;;;;;;5060555;28;20229;-76
2021/03/17 13:12:52;;;;;;;1.20;1.10;;;13.60;62.90;;;;;;5072716;28;20866;-75
2021/03/17 13:15:20;;;;;;;1.10;1.10;;;14.00;63.20;;;;;;5072950;28;20229;-76
2021/03/17 13:17:47;;;;;;;1.50;1.40;;;14.20;62.40;;;;;;5061595;28;20336;-75